ADDS METAR Data INFO
IDs: Format: Raw Decoded Include TAF

Data at: 1407 UTC 12 Dec 2017

KVQQ 121350Z 00000KT 10SM CLR 09/09 A2998
KVQQ 121250Z 00000KT 5SM BCFG CLR 05/05 A2998
KVQQ 121150Z 00000KT 5SM BCFG CLR 05/05 A2999
KVQQ 121035Z AUTO 03/03 A3000 RMK AO2
KVQQ 121015Z AUTO 03/03 A3000 RMK AO2
KVQQ 120955Z AUTO 03/03 A3000 RMK AO2
KVQQ 120935Z AUTO 04/04 A3000 RMK AO2
KVQQ 120915Z AUTO 04/04 A3001 RMK AO2
KVQQ 120855Z AUTO 04/04 A3002 RMK AO2
KVQQ 120835Z AUTO 05/05 A3003 RMK AO2
KVQQ 120815Z AUTO 04/04 A3004 RMK AO2
KVQQ 120755Z AUTO 03/03 A3004 RMK AO2
KVQQ 120735Z AUTO 03/03 A3006 RMK AO2
KVQQ 120715Z AUTO 03/03 A3006 RMK AO2
KVQQ 120655Z AUTO 06/05 A3006 RMK AO2
KVQQ 120635Z AUTO 06/06 A3007 RMK AO2
KVQQ 120615Z AUTO 07/06 A3008 RMK AO2
KVQQ 120555Z AUTO 06/05 A3008 RMK AO2
KVQQ 120535Z AUTO 06/05 A3009 RMK AO2
KVQQ 120515Z AUTO 06/04 A3009 RMK AO2
KVQQ 120455Z AUTO 04/04 A3010 RMK AO2
KVQQ 120435Z AUTO 03/03 A3011 RMK AO2
KVQQ 120415Z AUTO 04/03 A3012 RMK AO2
KVQQ 120355Z AUTO 03/03 A3012 RMK AO2
KVQQ 120350Z 00000KT 10SM CLR 03/02 A3012
KVQQ 120335Z AUTO 03/02 A3012 RMK AO2
KVQQ 120315Z AUTO 03/02 A3013 RMK AO2
KVQQ 120250Z 00000KT 10SM CLR 05/02 A3013
KVQQ 120150Z 00000KT 10SM CLR 07/02 A3014
KVQQ 120050Z 00000KT 10SM CLR 04/03 A3015
KVQQ 112350Z 00000KT 10SM CLR 05/04 A3015
KVQQ 112250Z 00000KT 10SM CLR 09/04 A3014
KVQQ 112150Z VRB04KT 10SM CLR 15/02 A3014
KVQQ 112050Z 21005KT 10SM CLR 17/01 A3013
KVQQ 111950Z VRB04KT 10SM CLR 17/01 A3014
KVQQ 111850Z VRB04KT 10SM CLR 16/00 A3017
KVQQ 111750Z VRB04KT 10SM CLR 14/01 A3020
KVQQ 111650Z VRB03KT 10SM CLR 13/01 A3025
KVQQ 111550Z VRB04KT 10SM CLR 12/02 A3027
KVQQ 111450Z VRB04KT 10SM CLR 09/02 A3029
KVQQ 111350Z VRB04KT 10SM CLR 03/03 A3030
KVQQ 111250Z VRB04KT 10SM CLR M01/M01 A3030
KVQQ 111150Z VRB04KT 10SM CLR M01/M01 A3029
KVQQ 111035Z AUTO M01/M01 A3028 RMK AO2
KVQQ 111015Z AUTO M01/M01 A3029 RMK AO2
KVQQ 110955Z AUTO M01/M01 A3029 RMK AO2
KVQQ 110935Z AUTO M01/M01 A3029 RMK AO2
KVQQ 110915Z AUTO M01/M01 A3029 RMK AO2
KVQQ 110855Z AUTO M00/M00 A3029 RMK AO2
KVQQ 110835Z AUTO M01/M01 A3029 RMK AO2
KVQQ 110815Z AUTO M01/M01 A3029 RMK AO2
KVQQ 110755Z AUTO 00/00 A3029 RMK AO2
KVQQ 110735Z AUTO M00/M00 A3029 RMK AO2
KVQQ 110715Z AUTO M00/M00 A3030 RMK AO2
KVQQ 110655Z AUTO 01/00 A3030 RMK AO2
KVQQ 110635Z AUTO 01/00 A3030 RMK AO2
KVQQ 110615Z AUTO 02/01 A3031 RMK AO2
KVQQ 110555Z AUTO 01/01 A3031 RMK AO2
KVQQ 110535Z AUTO 01/01 A3031 RMK AO2
KVQQ 110515Z AUTO 00/00 A3030 RMK AO2
KVQQ 110455Z AUTO M00/M00 A3030 RMK AO2
KVQQ 110435Z AUTO M00/M00 A3031 RMK AO2
KVQQ 110415Z AUTO 00/00 A3031 RMK AO2
KVQQ 110355Z AUTO M00/00 A3030 RMK AO2
KVQQ 110335Z AUTO 00/00 A3030 RMK AO2
KVQQ 110315Z AUTO 00/00 A3031 RMK AO2